createdAt,value
2018-03-25T00:00:55.555Z,92478.27
2018-03-25T00:03:24.069Z,92477.09
2018-03-25T00:05:52.631Z,92474.75
2018-03-25T00:08:21.162Z,92482.09
2018-03-25T00:10:49.590Z,92476.69
2018-03-25T00:13:18.453Z,92482.75
2018-03-25T00:15:46.942Z,92476.94
2018-03-25T00:18:16.327Z,92478.23
2018-03-25T00:20:46.988Z,92482.09
2018-03-25T00:23:15.437Z,92479.89
2018-03-25T00:25:45.939Z,92483.49
2018-03-25T00:28:14.358Z,92487.69
2018-03-25T00:30:48.620Z,92486.45
2018-03-25T00:33:18.641Z,92485.15
2018-03-25T00:35:47.155Z,92489.53
2018-03-25T00:38:17.315Z,92493.40
2018-03-25T00:40:47.748Z,92501.42
2018-03-25T00:43:16.197Z,92496.22
2018-03-25T00:45:44.686Z,92500.30
2018-03-25T00:48:14.613Z,92495.73
2018-03-25T00:50:43.081Z,92497.68
2018-03-25T00:53:11.518Z,92495.73
2018-03-25T00:55:40.470Z,92493.71
2018-03-25T00:58:11.084Z,92505.19
2018-03-25T01:00:39.625Z,92509.76
2018-03-25T01:03:09.385Z,92504.23
2018-03-25T01:05:37.832Z,92510.14
2018-03-25T01:08:06.347Z,92508.36
2018-03-25T01:10:34.857Z,92504.69
2018-03-25T01:13:04.933Z,92505.73
2018-03-25T01:15:43.677Z,92505.41
2018-03-25T01:18:12.106Z,92507.59
2018-03-25T01:20:40.625Z,92514.02
2018-03-25T01:23:09.096Z,92510.16
2018-03-25T01:25:37.581Z,92507.64
2018-03-25T01:28:06.016Z,92506.92
2018-03-25T01:30:34.492Z,92509.75
2018-03-25T01:33:02.972Z,92507.01
2018-03-25T01:35:33.079Z,92505.52
2018-03-25T01:38:03.498Z,92506.38
2018-03-25T01:40:34.061Z,92510.96
2018-03-25T01:43:02.485Z,92510.64
2018-03-25T01:45:30.991Z,92510.71
2018-03-25T01:47:59.431Z,92509.94
2018-03-25T01:50:27.939Z,92511.19
2018-03-25T01:52:56.454Z,92506.22
2018-03-25T01:55:24.972Z,92507.68
2018-03-25T01:57:54.884Z,92510.13
2018-03-25T02:00:23.333Z,92518.41
2018-03-25T02:02:51.813Z,92508.67
2018-03-25T02:05:20.326Z,92504.95
2018-03-25T02:07:50.409Z,92508.67
2018-03-25T02:10:21.098Z,92512.16
2018-03-25T02:12:51.594Z,92507.25
2018-03-25T02:15:20.061Z,92508.09
2018-03-25T02:17:48.515Z,92506.16
2018-03-25T02:20:18.423Z,92511.45
2018-03-25T02:22:53.149Z,92509.52
2018-03-25T02:25:21.652Z,92506.20
2018-03-25T02:27:50.686Z,92504.95
2018-03-25T02:30:19.158Z,92502.88
2018-03-25T02:32:48.537Z,92498.16
2018-03-25T02:35:19.241Z,92504.79
2018-03-25T02:37:47.693Z,92504.95
2018-03-25T02:40:16.867Z,92513.03
2018-03-25T02:42:45.371Z,92511.70
2018-03-25T02:45:15.892Z,92512.79
2018-03-25T02:47:44.326Z,92509.47
2018-03-25T02:50:14.861Z,92508.99
2018-03-25T02:52:43.291Z,92514.31
2018-03-25T02:55:12.063Z,92516.69
2018-03-25T02:57:42.599Z,92520.94
2018-03-25T03:00:11.069Z,92526.77
2018-03-25T03:02:39.531Z,92521.08
2018-03-25T03:05:13.374Z,92522.69
2018-03-25T03:07:43.469Z,92519.42
2018-03-25T03:10:14.358Z,92521.88
2018-03-25T03:12:42.798Z,92516.95
2018-03-25T03:15:13.290Z,92522.16
2018-03-25T03:17:41.752Z,92520.21
2018-03-25T03:20:10.225Z,92518.33
2018-03-25T03:22:38.686Z,92517.47
2018-03-25T03:25:07.161Z,92519.64
2018-03-25T03:27:37.723Z,92523.07
2018-03-25T03:30:06.185Z,92519.86
2018-03-25T03:32:34.630Z,92525.32
2018-03-25T03:35:03.083Z,92516.70
2018-03-25T03:37:33.586Z,92516.87
2018-03-25T03:40:02.020Z,92524.96
2018-03-25T03:42:30.450Z,92517.78
2018-03-25T03:44:58.878Z,92518.33
2018-03-25T03:47:27.317Z,92520.75
2018-03-25T03:49:57.340Z,92520.53
2018-03-25T03:52:25.850Z,92519.73
2018-03-25T03:54:55.861Z,92524.67
2018-03-25T03:57:24.297Z,92526.92
2018-03-25T03:59:54.413Z,92526.47
2018-03-25T04:02:23.078Z,92525.17
2018-03-25T04:04:51.490Z,92529.00
2018-03-25T04:07:19.961Z,92528.51
2018-03-25T04:09:51.986Z,92534.02
2018-03-25T04:12:20.420Z,92529.82
2018-03-25T04:14:48.845Z,92530.81
2018-03-25T04:17:17.362Z,92532.09
2018-03-25T04:19:45.777Z,92532.42
2018-03-25T04:22:14.196Z,92531.27
2018-03-25T04:24:42.617Z,92536.64
2018-03-25T04:27:13.174Z,92536.83
2018-03-25T04:29:41.529Z,92539.73
2018-03-25T04:32:12.105Z,92537.83
2018-03-25T04:34:40.525Z,92536.30
2018-03-25T04:37:09.708Z,92543.69
2018-03-25T04:39:40.204Z,92537.54
2018-03-25T04:42:10.592Z,92542.66
2018-03-25T04:44:38.999Z,92544.86
2018-03-25T04:47:07.461Z,92545.31
2018-03-25T04:49:38.034Z,92546.87
2018-03-25T04:52:06.411Z,92546.22
2018-03-25T04:54:34.849Z,92543.82
2018-03-25T04:57:03.292Z,92549.56
2018-03-25T04:59:33.230Z,92548.19
2018-03-25T05:02:01.673Z,92552.45
2018-03-25T05:04:30.109Z,92556.65
2018-03-25T05:06:58.541Z,92551.09
2018-03-25T05:09:26.984Z,92547.13
2018-03-25T05:11:55.391Z,92546.88
2018-03-25T05:14:23.850Z,92554.27
2018-03-25T05:16:52.286Z,92563.42
2018-03-25T05:19:22.425Z,92565.69
2018-03-25T05:21:50.857Z,92567.28
2018-03-25T05:24:19.299Z,92565.59
2018-03-25T05:26:47.711Z,92568.50
2018-03-25T05:29:16.125Z,92566.23
2018-03-25T05:31:44.529Z,92564.55
2018-03-25T05:34:12.960Z,92570.35
2018-03-25T05:36:41.381Z,92569.30
2018-03-25T05:39:09.801Z,92574.30
2018-03-25T05:41:38.480Z,92576.80
2018-03-25T05:44:08.638Z,92578.90
2018-03-25T05:46:37.048Z,92580.52
2018-03-25T05:49:05.529Z,92585.55
2018-03-25T05:51:37.329Z,92579.73
2018-03-25T05:54:07.518Z,92585.66
2018-03-25T05:56:35.969Z,92589.94
2018-03-25T05:59:04.401Z,92594.11
2018-03-25T06:01:36.997Z,92592.60
2018-03-25T06:04:05.674Z,92599.27
2018-03-25T06:06:34.105Z,92608.77
2018-03-25T06:09:04.101Z,92611.97
2018-03-25T06:11:32.546Z,92609.13
2018-03-25T06:14:01.239Z,92610.40
2018-03-25T06:16:29.680Z,92612.50
2018-03-25T06:18:58.142Z,92609.01
2018-03-25T06:21:26.620Z,92610.13
2018-03-25T06:23:55.094Z,92613.33
2018-03-25T06:26:23.506Z,92618.91
2018-03-25T06:28:53.511Z,92624.25
2018-03-25T06:31:23.363Z,92623.89
2018-03-25T06:33:55.106Z,92624.08
2018-03-25T06:36:24.777Z,92622.83
2018-03-25T06:38:53.226Z,92633.25
2018-03-25T06:41:21.672Z,92634.00
2018-03-25T06:43:50.121Z,92637.39
2018-03-25T06:46:20.068Z,92642.42
2018-03-25T06:48:48.489Z,92649.53
2018-03-25T06:51:17.697Z,92649.23
2018-03-25T06:53:46.175Z,92651.46
2018-03-25T06:56:14.613Z,92654.92
2018-03-25T06:58:43.933Z,92650.27
2018-03-25T07:01:13.640Z,92654.26
2018-03-25T07:03:42.120Z,92662.67
2018-03-25T07:06:10.572Z,92659.23
2018-03-25T07:08:40.441Z,92664.14
2018-03-25T07:11:10.237Z,92661.95
2018-03-25T07:13:38.791Z,92662.97
2018-03-25T07:16:07.248Z,92670.08
2018-03-25T07:18:36.529Z,92664.77
2018-03-25T07:21:05.697Z,92673.54
2018-03-25T07:23:35.536Z,92672.06
2018-03-25T07:26:03.974Z,92677.70
2018-03-25T07:28:32.408Z,92674.88
2018-03-25T07:31:02.127Z,92681.77
2018-03-25T07:33:31.771Z,92683.19
2018-03-25T07:36:00.233Z,92684.81
2018-03-25T07:38:28.689Z,92691.02
2018-03-25T07:40:58.598Z,92700.56
2018-03-25T07:43:27.051Z,92696.08
2018-03-25T07:45:55.533Z,92697.67
2018-03-25T07:48:25.005Z,92697.30
2018-03-25T07:50:54.493Z,92702.38
2018-03-25T07:53:22.918Z,92691.77
2018-03-25T07:55:51.366Z,92695.97
2018-03-25T07:58:19.756Z,92701.59
2018-03-25T08:00:48.331Z,92698.23
2018-03-25T08:03:16.779Z,92707.92
2018-03-25T08:05:45.219Z,92707.94
2018-03-25T08:08:15.898Z,92706.91
2018-03-25T08:10:44.295Z,92714.41
2018-03-25T08:13:12.745Z,92717.39
2018-03-25T08:15:41.196Z,92715.53
2018-03-25T08:18:10.985Z,92709.91
2018-03-25T08:20:39.435Z,92714.70
2018-03-25T08:23:07.872Z,92713.18
2018-03-25T08:25:36.373Z,92714.29
2018-03-25T08:28:05.830Z,92721.83
2018-03-25T08:30:34.323Z,92720.11
2018-03-25T08:33:04.701Z,92716.02
2018-03-25T08:35:33.170Z,92722.16
2018-03-25T08:38:01.598Z,92714.67
2018-03-25T08:40:31.780Z,92706.59
2018-03-25T08:43:00.202Z,92716.16
2018-03-25T08:45:28.672Z,92714.39
2018-03-25T08:47:58.556Z,92716.34
2018-03-25T08:50:27.076Z,92714.62
2018-03-25T08:52:55.501Z,92714.77
2018-03-25T08:55:23.989Z,92712.36
2018-03-25T08:57:52.450Z,92711.95
2018-03-25T09:00:19.856Z,92715.55
2018-03-25T09:02:49.782Z,92717.52
2018-03-25T09:05:17.143Z,92709.34
2018-03-25T09:07:46.836Z,92711.58
2018-03-25T09:10:14.204Z,92714.47
2018-03-25T09:12:43.684Z,92711.12
2018-03-25T09:15:11.034Z,92712.27
2018-03-25T09:17:40.491Z,92719.31
2018-03-25T09:20:07.875Z,92726.09
2018-03-25T09:22:37.392Z,92721.15
2018-03-25T09:25:04.854Z,92722.14
2018-03-25T09:27:33.286Z,92719.30
2018-03-25T09:30:00.616Z,92714.58
2018-03-25T09:32:29.007Z,92723.98
2018-03-25T09:34:57.423Z,92722.89
2018-03-25T09:37:24.874Z,92721.90
2018-03-25T09:39:53.613Z,92724.25
2018-03-25T09:42:23.105Z,92725.61
2018-03-25T09:44:51.544Z,92732.48
2018-03-25T09:47:20.988Z,92736.35
2018-03-25T09:49:49.415Z,92733.72
2018-03-25T09:52:16.775Z,92737.16
2018-03-25T09:54:46.334Z,92738.16
2018-03-25T09:57:14.942Z,92732.48
2018-03-25T09:59:44.492Z,92741.75
2018-03-25T10:02:18.106Z,92737.21
2018-03-25T10:04:45.722Z,92740.78
2018-03-25T10:07:14.121Z,92741.58
2018-03-25T10:09:42.557Z,92745.23
2018-03-25T10:12:09.883Z,92738.78
2018-03-25T10:14:39.577Z,92745.91
2018-03-25T10:17:09.380Z,92749.02
2018-03-25T10:19:38.834Z,92742.36
2018-03-25T10:22:08.238Z,92743.47
2018-03-25T10:24:37.009Z,92745.30
2018-03-25T10:27:04.404Z,92748.17
2018-03-25T10:29:33.822Z,92744.96
2018-03-25T10:32:02.289Z,92748.91
2018-03-25T10:34:30.710Z,92741.33
2018-03-25T10:36:59.210Z,92754.76
2018-03-25T10:39:27.675Z,92744.33
2018-03-25T10:41:55.008Z,92747.54
2018-03-25T10:44:24.758Z,92745.77
2018-03-25T10:46:54.269Z,92740.23
2018-03-25T10:49:22.658Z,92742.73
2018-03-25T10:51:51.169Z,92737.77
2018-03-25T10:54:19.614Z,92747.16
2018-03-25T10:56:47.010Z,92741.58
2018-03-25T10:59:15.417Z,92739.47
2018-03-25T11:01:43.866Z,92749.86
2018-03-25T11:04:12.294Z,92751.88
2018-03-25T11:06:40.744Z,92743.95
2018-03-25T11:09:09.169Z,92742.05
2018-03-25T11:11:38.914Z,92749.19
2018-03-25T11:14:07.310Z,92755.38
2018-03-25T11:16:35.744Z,92748.00
2018-03-25T11:19:05.207Z,92749.20
2018-03-25T11:21:34.651Z,92754.28
2018-03-25T11:24:03.132Z,92756.10
2018-03-25T11:26:31.587Z,92752.34
2018-03-25T11:29:00.022Z,92754.17
2018-03-25T11:31:28.435Z,92752.68
2018-03-25T11:33:58.222Z,92753.21
2018-03-25T11:36:27.633Z,92751.94
2018-03-25T11:38:56.149Z,92756.95
2018-03-25T11:41:25.594Z,92758.30
2018-03-25T11:43:53.984Z,92764.27
2018-03-25T11:46:23.437Z,92770.89
2018-03-25T11:48:51.887Z,92764.92
2018-03-25T11:51:20.405Z,92765.41
2018-03-25T11:53:48.924Z,92761.22
2018-03-25T11:56:18.424Z,92759.11
2018-03-25T11:58:46.813Z,92763.92
2018-03-25T12:01:15.293Z,92759.36
2018-03-25T12:03:43.746Z,92762.83
2018-03-25T12:06:14.731Z,92760.97
2018-03-25T12:08:43.199Z,92759.49
2018-03-25T12:11:11.715Z,92754.00
2018-03-25T12:13:41.090Z,92758.21
2018-03-25T12:16:09.534Z,92754.03
2018-03-25T12:18:39.231Z,92762.88
2018-03-25T12:21:07.669Z,92760.69
2018-03-25T12:23:37.129Z,92751.43
2018-03-25T12:26:05.561Z,92752.66
2018-03-25T12:28:35.402Z,92756.92
2018-03-25T12:31:03.852Z,92760.44
2018-03-25T12:33:33.315Z,92758.62
2018-03-25T12:36:02.172Z,92750.56
2018-03-25T12:38:30.805Z,92751.90
2018-03-25T12:40:59.310Z,92751.06
2018-03-25T12:43:27.745Z,92751.90
2018-03-25T12:45:56.166Z,92742.41
2018-03-25T12:48:25.010Z,92752.58
2018-03-25T12:50:54.511Z,92754.11
2018-03-25T12:53:22.991Z,92750.91
2018-03-25T12:55:52.418Z,92752.04
2018-03-25T12:58:20.886Z,92754.05
2018-03-25T13:00:50.408Z,92750.43
2018-03-25T13:03:18.894Z,92747.42
2018-03-25T13:05:47.275Z,92749.66
2018-03-25T13:08:15.717Z,92750.22
2018-03-25T13:10:45.443Z,92750.42
2018-03-25T13:13:13.903Z,92750.66
2018-03-25T13:15:42.364Z,92752.58
2018-03-25T13:18:12.068Z,92755.28
2018-03-25T13:20:40.599Z,92747.78
2018-03-25T13:23:09.041Z,92752.80
2018-03-25T13:25:37.533Z,92749.90
2018-03-25T13:28:07.336Z,92754.26
2018-03-25T13:30:38.545Z,92749.50
2018-03-25T13:33:07.070Z,92746.81
2018-03-25T13:35:35.510Z,92747.44
2018-03-25T13:38:03.957Z,92748.83
2018-03-25T13:40:33.246Z,92756.27
2018-03-25T13:43:01.690Z,92753.39
2018-03-25T13:45:31.650Z,92755.34
2018-03-25T13:48:02.544Z,92753.45
2018-03-25T13:50:31.030Z,92750.31
2018-03-25T13:52:59.485Z,92753.13
2018-03-25T13:55:27.954Z,92755.03
2018-03-25T13:57:58.089Z,92752.60
2018-03-25T14:00:27.847Z,92754.27
2018-03-25T14:02:57.589Z,92751.70
2018-03-25T14:05:25.960Z,92739.81
2018-03-25T14:07:55.630Z,92754.50
2018-03-25T14:10:25.438Z,92758.88
2018-03-25T14:12:53.869Z,92764.66
2018-03-25T14:15:22.589Z,92765.07
2018-03-25T14:17:51.032Z,92761.09
2018-03-25T14:20:20.137Z,92757.81
2018-03-25T14:22:48.617Z,92757.09
2018-03-25T14:25:17.065Z,92755.91
2018-03-25T14:27:45.493Z,92755.83
2018-03-25T14:30:13.878Z,92762.13
2018-03-25T14:32:43.418Z,92757.31
2018-03-25T14:35:11.828Z,92757.67
2018-03-25T14:37:41.337Z,92761.39
2018-03-25T14:40:09.726Z,92762.02
2018-03-25T14:42:38.899Z,92758.16
2018-03-25T14:45:07.342Z,92759.50
2018-03-25T14:47:35.883Z,92755.66
2018-03-25T14:50:04.297Z,92761.20
2018-03-25T14:52:32.757Z,92763.34
2018-03-25T14:55:01.222Z,92763.97
2018-03-25T14:57:30.745Z,92760.73
2018-03-25T14:59:59.247Z,92753.98
2018-03-25T15:02:27.718Z,92765.48
2018-03-25T15:04:57.176Z,92764.84
2018-03-25T15:07:25.629Z,92766.86
2018-03-25T15:09:54.138Z,92769.81
2018-03-25T15:12:24.808Z,92771.59
2018-03-25T15:14:53.261Z,92773.23
2018-03-25T15:17:21.746Z,92768.25
2018-03-25T15:19:51.473Z,92774.09
2018-03-25T15:22:19.946Z,92774.95
2018-03-25T15:24:48.426Z,92778.34
2018-03-25T15:27:16.869Z,92775.34
2018-03-25T15:29:45.302Z,92777.36
2018-03-25T15:32:13.851Z,92780.83
2018-03-25T15:34:42.325Z,92781.16
2018-03-25T15:37:12.072Z,92780.02
2018-03-25T15:39:41.528Z,92787.73
2018-03-25T15:42:11.014Z,92789.58
2018-03-25T15:44:39.490Z,92793.00
2018-03-25T15:47:07.980Z,92787.86
2018-03-25T15:49:37.355Z,92791.96
2018-03-25T15:52:05.892Z,92797.75
2018-03-25T15:54:34.349Z,92796.08
2018-03-25T15:57:03.789Z,92801.38
2018-03-25T15:59:32.279Z,92791.83
2018-03-25T16:02:01.978Z,92805.28
2018-03-25T16:04:30.477Z,92801.09
2018-03-25T16:06:58.956Z,92811.80
2018-03-25T16:09:27.402Z,92811.17
2018-03-25T16:11:56.148Z,92811.97
2018-03-25T16:14:24.596Z,92808.76
2018-03-25T16:16:52.987Z,92815.80
2018-03-25T16:19:21.499Z,92817.67
2018-03-25T16:21:49.960Z,92819.22
2018-03-25T16:24:18.427Z,92817.62
2018-03-25T16:26:46.880Z,92820.13
2018-03-25T16:29:15.313Z,92820.76
2018-03-25T16:31:43.755Z,92824.51
2018-03-25T16:34:12.281Z,92827.10
2018-03-25T16:36:40.735Z,92827.05
2018-03-25T16:39:09.185Z,92825.16
2018-03-25T16:41:37.682Z,92830.97
2018-03-25T16:44:06.137Z,92834.38
2018-03-25T16:46:35.966Z,92831.78
2018-03-25T16:49:04.481Z,92839.38
2018-03-25T16:51:34.389Z,92840.73
2018-03-25T16:54:03.532Z,92844.23
2018-03-25T16:56:33.557Z,92843.88
2018-03-25T16:59:02.005Z,92849.38
2018-03-25T17:01:30.480Z,92849.75
2018-03-25T17:04:00.427Z,92846.51
2018-03-25T17:06:28.915Z,92853.48
2018-03-25T17:08:57.374Z,92860.39
2018-03-25T17:11:25.867Z,92859.31
2018-03-25T17:13:54.391Z,92860.38
2018-03-25T17:16:22.895Z,92868.14
2018-03-25T17:18:51.354Z,92869.77
2018-03-25T17:21:19.818Z,92879.51
2018-03-25T17:23:48.300Z,92875.23
2018-03-25T17:26:16.811Z,92880.62
2018-03-25T17:28:45.272Z,92884.09
2018-03-25T17:31:15.238Z,92884.55
2018-03-25T17:33:45.378Z,92891.91
2018-03-25T17:36:13.838Z,92893.31
2018-03-25T17:38:42.363Z,92888.04
2018-03-25T17:41:12.455Z,92892.89
2018-03-25T17:43:40.928Z,92902.42
2018-03-25T17:46:09.410Z,92901.16
2018-03-25T17:48:37.909Z,92905.58
2018-03-25T17:51:06.442Z,92909.37
2018-03-25T17:53:39.026Z,92915.50
2018-03-25T17:56:07.518Z,92917.77
2018-03-25T17:58:37.595Z,92918.56
2018-03-25T18:01:06.091Z,92920.16
2018-03-25T18:03:34.582Z,92925.30
2018-03-25T18:06:03.068Z,92926.03
2018-03-25T18:08:31.568Z,92928.69
2018-03-25T18:11:00.056Z,92929.02
2018-03-25T18:13:30.088Z,92932.03
2018-03-25T18:16:00.095Z,92933.24
2018-03-25T18:18:30.589Z,92931.73
2018-03-25T18:20:59.026Z,92934.20
2018-03-25T18:23:27.546Z,92946.47
2018-03-25T18:25:57.973Z,92950.90
2018-03-25T18:28:28.716Z,92962.00
2018-03-25T18:31:00.846Z,92964.34
2018-03-25T18:33:29.402Z,92977.14
2018-03-25T18:35:59.351Z,92971.42
2018-03-25T18:38:27.827Z,92975.74
2018-03-25T18:40:56.234Z,92973.75
2018-03-25T18:43:26.725Z,92981.61
2018-03-25T18:45:55.419Z,92988.02
2018-03-25T18:48:23.881Z,92982.91
2018-03-25T18:50:53.873Z,92985.62
2018-03-25T18:53:22.568Z,92993.45
2018-03-25T18:55:50.999Z,92991.95
2018-03-25T18:58:19.538Z,92997.83
2018-03-25T19:00:48.117Z,93006.22
2018-03-25T19:03:19.175Z,93008.25
2018-03-25T19:05:49.187Z,93010.02
2018-03-25T19:08:19.711Z,93010.31
2018-03-25T19:10:48.176Z,93007.98
2018-03-25T19:13:16.665Z,93006.77
2018-03-25T19:15:45.144Z,93013.44
2018-03-25T19:18:13.613Z,93014.64
2018-03-25T19:20:42.062Z,93013.18
2018-03-25T19:23:12.656Z,93013.93
2018-03-25T19:25:42.521Z,93020.36
2018-03-25T19:28:11.021Z,93019.34
2018-03-25T19:30:39.504Z,93025.26
2018-03-25T19:33:07.986Z,93020.66
2018-03-25T19:35:36.500Z,93024.70
2018-03-25T19:38:04.941Z,93019.16
2018-03-25T19:40:33.492Z,93022.02
2018-03-25T19:43:02.776Z,93021.94
2018-03-25T19:45:34.874Z,93020.53
2018-03-25T19:48:03.437Z,93030.25
2018-03-25T19:50:31.895Z,93031.73
2018-03-25T19:53:02.476Z,93034.42
2018-03-25T19:55:32.934Z,93034.42
2018-03-25T19:58:01.395Z,93032.34
2018-03-25T20:00:31.485Z,93037.31
2018-03-25T20:03:01.540Z,93036.04
2018-03-25T20:05:30.012Z,93038.56
2018-03-25T20:07:58.506Z,93037.59
2018-03-25T20:10:26.954Z,93035.00
2018-03-25T20:12:55.666Z,93046.80
2018-03-25T20:15:24.832Z,93049.50
2018-03-25T20:17:53.286Z,93045.73
2018-03-25T20:20:23.795Z,93050.73
2018-03-25T20:22:52.286Z,93049.81
2018-03-25T20:25:22.619Z,93049.30
2018-03-25T20:27:51.066Z,93056.64
2018-03-25T20:30:20.597Z,93057.69
2018-03-25T20:32:49.109Z,93068.66
2018-03-25T20:35:17.622Z,93064.48
2018-03-25T20:37:48.202Z,93063.29
2018-03-25T20:40:18.807Z,93063.81
2018-03-25T20:42:47.294Z,93070.69
2018-03-25T20:45:17.293Z,93063.29
2018-03-25T20:47:45.789Z,93071.00
2018-03-25T20:50:14.242Z,93071.03
2018-03-25T20:52:44.649Z,93072.12
2018-03-25T20:55:13.098Z,93084.98
2018-03-25T20:57:41.521Z,93082.66
2018-03-25T21:00:11.725Z,93081.44
2018-03-25T21:02:40.267Z,93087.19
2018-03-25T21:05:08.691Z,93088.70
2018-03-25T21:07:40.814Z,93086.55
2018-03-25T21:10:12.826Z,93093.84
2018-03-25T21:12:41.308Z,93093.22
2018-03-25T21:15:11.287Z,93090.56
2018-03-25T21:17:39.762Z,93090.56
2018-03-25T21:20:13.758Z,93095.59
2018-03-25T21:22:46.029Z,93089.86
2018-03-25T21:25:14.470Z,93093.77
2018-03-25T21:27:42.973Z,93094.19
2018-03-25T21:30:11.413Z,93091.66
2018-03-25T21:32:40.245Z,93089.36
2018-03-25T21:35:08.702Z,93095.05
2018-03-25T21:37:37.166Z,93098.41
2018-03-25T21:40:05.732Z,93095.53
2018-03-25T21:42:34.212Z,93097.80
2018-03-25T21:45:02.829Z,93097.34
2018-03-25T21:47:33.008Z,93098.39
2018-03-25T21:50:01.404Z,93099.54
2018-03-25T21:52:31.556Z,93098.37
2018-03-25T21:55:02.089Z,93103.31
2018-03-25T21:57:30.627Z,93104.05
2018-03-25T22:00:00.540Z,93100.76
2018-03-25T22:02:32.620Z,93107.48
2018-03-25T22:05:01.090Z,93107.02
2018-03-25T22:07:29.553Z,93110.25
2018-03-25T22:09:58.110Z,93111.43
2018-03-25T22:12:26.601Z,93103.76
2018-03-25T22:14:55.053Z,93115.08
2018-03-25T22:17:23.628Z,93114.70
2018-03-25T22:19:52.064Z,93115.37
2018-03-25T22:22:20.498Z,93114.31
2018-03-25T22:24:49.030Z,93112.27
2018-03-25T22:27:17.464Z,93118.33
2018-03-25T22:29:47.461Z,93125.02
2018-03-25T22:32:17.970Z,93119.88
2018-03-25T22:34:48.509Z,93117.27
2018-03-25T22:37:16.950Z,93122.84
2018-03-25T22:39:45.367Z,93121.47
2018-03-25T22:42:13.789Z,93121.00
2018-03-25T22:44:44.276Z,93122.25
2018-03-25T22:47:14.534Z,93121.98
2018-03-25T22:49:42.996Z,93131.03
2018-03-25T22:52:11.417Z,93135.85
2018-03-25T22:54:43.406Z,93133.00
2018-03-25T22:57:11.829Z,93132.41
2018-03-25T22:59:42.367Z,93127.44
2018-03-25T23:02:10.813Z,93126.77
2018-03-25T23:04:39.413Z,93125.73
2018-03-25T23:07:07.866Z,93126.78
2018-03-25T23:09:36.306Z,93126.91
2018-03-25T23:12:06.561Z,93132.29
2018-03-25T23:14:36.866Z,93119.76
2018-03-25T23:17:05.268Z,93120.03
2018-03-25T23:19:33.685Z,93123.58
2018-03-25T23:22:02.257Z,93123.03
2018-03-25T23:24:30.649Z,93128.29
2018-03-25T23:26:59.142Z,93136.34
2018-03-25T23:29:27.581Z,93134.07
2018-03-25T23:31:57.991Z,93129.02
2018-03-25T23:34:26.637Z,93122.84
2018-03-25T23:36:55.137Z,93121.14
2018-03-25T23:39:23.707Z,93125.98
2018-03-25T23:41:52.143Z,93128.14
2018-03-25T23:44:20.625Z,93129.84
2018-03-25T23:46:49.058Z,93128.95
2018-03-25T23:49:18.993Z,93135.00
2018-03-25T23:51:47.988Z,93127.98
2018-03-25T23:54:16.561Z,93131.95
2018-03-25T23:56:46.559Z,93139.70
2018-03-25T23:59:15.351Z,93139.70
